TDPD/DOM METAR and TAF weather

Enter ICAO airport designator
Station Type Date Time Source
TDPD METAR 2020/11/28 19:00 UTC NOAA

TDPD 281900Z 08004KT 9999 BKN016 27/24 Q1013


Station Type Date Time Source
TDPD Decoded METAR 2020/11/28 19:00 UTC NOAA

Melville Hall Airport, Dominica (TDPD) 15-32N 061-18W 14M
Nov 28, 2020 - 02:00 PM EST / 2020.11.28 1900 UTC
Wind: from the E (080 degrees) at 5 MPH (4 KT):0
Visibility: greater than 7 mile(s):0
Sky conditions: mostly cloudy
Temperature: 80 F (27 C)
Dew Point: 75 F (24 C)
Relative Humidity: 83%
Pressure (altimeter): 29.91 in. Hg (1013 hPa)
ob: TDPD 281900Z 08004KT 9999 BKN016 27/24 Q1013
cycle: 19

Station Type Date Time Source
TDPD TAF 2020/11/28 18:50 UTC NOAA

TAF TDPD 281700Z 2818/2918 11007KT 9999 SCT018

Example: see airport list